Time;durP1;ratioP1;P1;durP2;ratioP2;P2;SDS_P1;SDS_P2;PMS_P1;PMS_P2;Temp;Humidity;BMP_temperature;BMP_pressure;BME280_temperature;BME280_humidity;BME280_pressure;Samples;Min_cycle;Max_cycle;Signal;HPM_P1;HPM_P2
2023/07/11 00:01:23;;;;;;;3.77;1.77;;;17.60;99.90;;;;;;5012953;28;20172;-75
2023/07/11 00:03:49;;;;;;;7.40;2.17;;;17.80;99.90;;;;;;5012848;28;20192;-75
2023/07/11 00:06:17;;;;;;;4.00;1.93;;;17.60;99.90;;;;;;5012505;28;20223;-76
2023/07/11 00:08:42;;;;;;;5.37;2.00;;;17.50;99.90;;;;;;5012696;28;20221;-75
2023/07/11 00:11:10;;;;;;;6.50;1.87;;;17.50;99.90;;;;;;5012599;28;20668;-75
2023/07/11 00:13:36;;;;;;;4.63;2.20;;;17.50;99.90;;;;;;5012645;28;20181;-76
2023/07/11 00:16:07;;;;;;;3.77;1.90;;;17.50;99.90;;;;;;5011294;28;20710;-76
2023/07/11 00:18:33;;;;;;;3.57;1.97;;;17.50;99.90;;;;;;5012587;28;20179;-75
2023/07/11 00:20:58;;;;;;;5.50;2.00;;;17.60;99.90;;;;;;5012791;28;20575;-76
2023/07/11 00:23:24;;;;;;;5.20;1.67;;;17.40;99.90;;;;;;5012417;28;20542;-77
2023/07/11 00:25:50;;;;;;;4.63;2.03;;;17.40;99.90;;;;;;5012402;28;20169;-75
2023/07/11 00:28:16;;;;;;;2.67;1.50;;;17.30;99.90;;;;;;5012305;28;20223;-75
2023/07/11 00:30:41;;;;;;;9.93;2.03;;;17.30;99.90;;;;;;5012458;28;20177;-76
2023/07/11 00:33:11;;;;;;;4.57;2.13;;;17.30;99.90;;;;;;5010817;28;20181;-76
2023/07/11 00:35:43;;;;;;;4.80;1.90;;;17.20;99.90;;;;;;5011111;28;20183;-76
2023/07/11 00:38:08;;;;;;;7.73;2.23;;;17.20;99.90;;;;;;5011001;28;20256;-75
2023/07/11 00:40:42;;;;;;;3.13;1.73;;;17.10;99.90;;;;;;5012356;28;20596;-76
2023/07/11 00:43:11;;;;;;;7.13;1.70;;;17.20;99.90;;;;;;5011473;28;20169;-75
2023/07/11 00:46:04;;;;;;;6.77;2.10;;;17.20;99.90;;;;;;5012622;28;20193;-76
2023/07/11 00:48:34;;;;;;;4.40;2.10;;;17.10;99.90;;;;;;5013989;28;20181;-76
2023/07/11 00:51:00;;;;;;;6.37;1.87;;;17.10;99.90;;;;;;5016513;28;20165;-75
2023/07/11 00:53:26;;;;;;;4.87;1.80;;;17.10;99.90;;;;;;5016221;28;20228;-76
2023/07/11 00:55:54;;;;;;;5.37;1.83;;;17.00;99.90;;;;;;5016106;28;20196;-76
2023/07/11 00:58:23;;;;;;;3.63;1.70;;;17.00;99.90;;;;;;5014615;28;20342;-77
2023/07/11 01:00:50;;;;;;;6.87;1.97;;;17.00;99.90;;;;;;5016374;28;20173;-75
2023/07/11 01:03:15;;;;;;;6.00;1.87;;;17.00;99.90;;;;;;5015914;28;20687;-76
2023/07/11 01:05:41;;;;;;;4.97;2.13;;;16.90;99.90;;;;;;5015925;28;20216;-76
2023/07/11 01:08:07;;;;;;;2.70;1.70;;;17.00;99.90;;;;;;5014480;28;20217;-75
2023/07/11 01:10:33;;;;;;;5.03;2.20;;;17.00;99.90;;;;;;5016060;28;20633;-75
2023/07/11 01:13:01;;;;;;;7.23;2.13;;;16.90;99.90;;;;;;5015752;28;20176;-77
2023/07/11 01:15:27;;;;;;;4.50;2.10;;;16.90;99.90;;;;;;5015987;28;20184;-77
2023/07/11 01:17:53;;;;;;;4.30;1.87;;;16.90;99.90;;;;;;5015693;28;20173;-76
2023/07/11 01:20:18;;;;;;;4.33;2.10;;;16.80;99.90;;;;;;5016002;28;20181;-75
2023/07/11 01:22:44;;;;;;;3.23;1.80;;;16.90;99.90;;;;;;5014204;28;20181;-75
2023/07/11 01:25:13;;;;;;;4.57;1.87;;;16.90;99.90;;;;;;5015513;28;20193;-75
2023/07/11 01:27:41;;;;;;;2.30;1.83;;;16.80;99.90;;;;;;5015692;28;20291;-77
2023/07/11 01:30:09;;;;;;;4.33;2.00;;;16.90;99.90;;;;;;5014365;28;20675;-76
2023/07/11 01:32:35;;;;;;;4.07;2.20;;;16.80;99.90;;;;;;5015545;28;20228;-77
2023/07/11 01:35:01;;;;;;;3.90;1.73;;;16.80;99.90;;;;;;5015577;28;20212;-75
2023/07/11 01:37:26;;;;;;;5.20;1.70;;;16.80;99.90;;;;;;5015591;28;20169;-76
2023/07/11 01:39:52;;;;;;;4.13;1.80;;;16.80;99.90;;;;;;5015402;28;20180;-75
2023/07/11 01:42:18;;;;;;;4.97;2.00;;;16.80;99.90;;;;;;5015410;28;20188;-75
2023/07/11 01:44:43;;;;;;;3.30;1.87;;;16.80;99.90;;;;;;5015401;28;20548;-75
2023/07/11 01:47:09;;;;;;;9.00;1.70;;;16.70;99.90;;;;;;5013889;28;20684;-75
2023/07/11 01:49:35;;;;;;;3.33;1.73;;;16.70;99.90;;;;;;5014050;28;20252;-76
2023/07/11 01:52:22;;;;;;;6.27;1.90;;;16.70;99.90;;;;;;5015228;28;20223;-76
2023/07/11 01:54:49;;;;;;;2.77;1.70;;;16.70;99.90;;;;;;5015172;28;20694;-76
2023/07/11 01:57:15;;;;;;;3.87;2.00;;;16.70;99.90;;;;;;5015360;28;20211;-76
2023/07/11 01:59:40;;;;;;;6.90;2.07;;;16.70;99.90;;;;;;5014569;28;20212;-76
2023/07/11 02:02:08;;;;;;;4.13;1.80;;;16.70;99.90;;;;;;5015132;28;20200;-76
2023/07/11 02:04:35;;;;;;;5.47;1.90;;;16.70;99.90;;;;;;5013512;28;20255;-76
2023/07/11 02:07:01;;;;;;;3.37;1.70;;;16.70;99.90;;;;;;5014830;28;20262;-76
2023/07/11 02:09:28;;;;;;;4.73;2.03;;;16.70;99.90;;;;;;5013431;28;20204;-76
2023/07/11 02:11:53;;;;;;;3.90;2.00;;;16.70;99.90;;;;;;5014721;28;20179;-76
2023/07/11 02:14:20;;;;;;;7.70;1.97;;;16.60;99.90;;;;;;5014802;28;20638;-76
2023/07/11 02:16:51;;;;;;;4.07;1.93;;;16.60;99.90;;;;;;5014665;28;20181;-76
2023/07/11 02:19:19;;;;;;;4.13;2.27;;;16.60;99.90;;;;;;5014549;28;20184;-76
2023/07/11 02:21:45;;;;;;;4.00;1.77;;;16.60;99.90;;;;;;5014585;28;20259;-76
2023/07/11 02:24:13;;;;;;;4.83;1.70;;;16.60;99.90;;;;;;5013140;28;20232;-76
2023/07/11 02:26:39;;;;;;;4.93;2.20;;;16.60;99.90;;;;;;5014173;28;20290;-76
2023/07/11 02:29:06;;;;;;;3.07;1.90;;;16.70;99.90;;;;;;5014509;28;20231;-76
2023/07/11 02:31:33;;;;;;;5.70;2.30;;;16.60;99.90;;;;;;5014429;28;20236;-76
2023/07/11 02:33:59;;;;;;;7.63;2.10;;;16.60;99.90;;;;;;5014317;28;20584;-76
2023/07/11 02:36:25;;;;;;;4.93;2.10;;;16.60;99.90;;;;;;5037381;23;20303;-89
2023/07/11 02:38:51;;;;;;;3.73;2.20;;;16.60;99.90;;;;;;5053064;28;20656;-89
2023/07/11 02:41:16;;;;;;;5.00;1.70;;;16.70;99.90;;;;;;5037645;28;20172;-89
2023/07/11 02:43:42;;;;;;;5.47;2.00;;;16.70;99.90;;;;;;5041983;28;20188;-89
2023/07/11 02:46:08;;;;;;;4.07;2.30;;;16.70;99.90;;;;;;5036075;28;20527;-89
2023/07/11 02:48:34;;;;;;;7.63;2.00;;;16.70;99.90;;;;;;5035617;28;20594;-89
2023/07/11 02:50:59;;;;;;;3.60;1.90;;;16.80;99.90;;;;;;5036324;28;20192;-89
2023/07/11 02:53:25;;;;;;;3.80;1.93;;;16.70;99.90;;;;;;5036405;28;20179;-89
2023/07/11 02:55:54;;;;;;;3.23;1.87;;;16.90;99.90;;;;;;5037511;28;20164;-89
2023/07/11 02:58:20;;;;;;;4.27;1.80;;;16.80;99.90;;;;;;5037244;28;20172;-89
2023/07/11 03:00:49;;;;;;;5.57;2.00;;;17.00;99.90;;;;;;5035952;28;20202;-89
2023/07/11 03:03:15;;;;;;;4.70;2.00;;;17.90;99.90;;;;;;5037093;28;20226;-89
2023/07/11 03:05:43;;;;;;;3.50;1.73;;;16.80;99.90;;;;;;5036181;28;20172;-89
2023/07/11 03:08:09;;;;;;;4.60;2.00;;;16.80;99.90;;;;;;5035637;28;20200;-89
2023/07/11 03:10:34;;;;;;;3.37;1.90;;;16.70;99.90;;;;;;5035201;28;20204;-89
2023/07/11 03:13:00;;;;;;;4.40;2.00;;;16.80;99.90;;;;;;5035968;28;20199;-89
2023/07/11 03:15:25;;;;;;;5.33;2.37;;;16.80;99.90;;;;;;5035548;28;20253;-89
2023/07/11 03:17:51;;;;;;;4.23;1.73;;;17.00;99.90;;;;;;5036808;28;20188;-89
2023/07/11 03:20:16;;;;;;;4.47;2.20;;;16.80;99.90;;;;;;5035704;28;20204;-89
2023/07/11 03:22:42;;;;;;;6.27;2.63;;;16.90;99.90;;;;;;5036233;28;20259;-89
2023/07/11 03:25:08;;;;;;;5.23;2.03;;;16.80;99.90;;;;;;5036790;28;20176;-89
2023/07/11 03:27:33;;;;;;;3.77;1.60;;;16.80;99.90;;;;;;5035081;28;20688;-89
2023/07/11 03:29:59;;;;;;;3.47;1.97;;;18.40;99.90;;;;;;5035334;28;20705;-89
2023/07/11 03:32:24;;;;;;;5.93;1.83;;;16.80;99.90;;;;;;5035741;28;20665;-89
2023/07/11 03:34:50;;;;;;;3.30;1.90;;;16.80;99.90;;;;;;5035082;28;20176;-89
2023/07/11 03:37:15;;;;;;;5.07;1.90;;;16.80;99.90;;;;;;5035723;28;20537;-89
2023/07/11 03:39:41;;;;;;;5.70;1.80;;;17.40;99.90;;;;;;5035076;28;20211;-89
2023/07/11 03:42:07;;;;;;;3.70;2.00;;;16.70;99.90;;;;;;5035577;28;20277;-89
2023/07/11 03:44:33;;;;;;;2.70;1.40;;;16.80;99.90;;;;;;5035343;28;20176;-89
2023/07/11 03:46:58;;;;;;;4.73;1.80;;;16.80;99.90;;;;;;5035410;28;20656;-89
2023/07/11 03:49:24;;;;;;;5.73;1.93;;;16.90;99.90;;;;;;5036321;28;20192;-89
2023/07/11 03:51:49;;;;;;;3.77;1.93;;;16.80;99.90;;;;;;5035362;28;20187;-89
2023/07/11 03:54:15;;;;;;;4.03;2.13;;;17.80;99.90;;;;;;5035341;28;20180;-89
2023/07/11 03:56:40;;;;;;;4.33;1.90;;;16.80;99.90;;;;;;5035299;28;20180;-89
2023/07/11 03:59:06;;;;;;;3.57;1.83;;;16.80;99.90;;;;;;5034482;28;20207;-89
2023/07/11 04:01:32;;;;;;;5.43;1.80;;;16.80;99.90;;;;;;5034105;28;20195;-89
2023/07/11 04:03:57;;;;;;;4.20;1.90;;;16.80;99.90;;;;;;5034509;28;20278;-89
2023/07/11 04:06:23;;;;;;;4.90;1.67;;;16.80;99.90;;;;;;5034219;28;20326;-89
2023/07/11 04:08:48;;;;;;;5.13;1.80;;;16.80;99.90;;;;;;5034315;28;20180;-89
2023/07/11 04:11:14;;;;;;;4.30;1.80;;;16.90;99.90;;;;;;5034586;28;20180;-89
2023/07/11 04:13:39;;;;;;;4.00;2.00;;;16.70;99.90;;;;;;5034438;28;20176;-89
2023/07/11 04:16:05;;;;;;;5.27;2.03;;;16.80;99.90;;;;;;5035315;28;20271;-89
2023/07/11 04:18:31;;;;;;;2.77;1.70;;;16.90;99.90;;;;;;5034565;28;20252;-89
2023/07/11 04:20:56;;;;;;;4.77;1.80;;;16.80;99.90;;;;;;5034367;28;20222;-89
2023/07/11 04:23:22;;;;;;;5.13;2.10;;;17.60;99.90;;;;;;5034053;28;20176;-89
2023/07/11 04:25:47;;;;;;;3.57;1.97;;;16.90;99.90;;;;;;5034294;28;20180;-89
2023/07/11 04:28:13;;;;;;;2.37;1.63;;;17.00;99.00;;;;;;5033996;28;20199;-89
2023/07/11 04:30:39;;;;;;;3.13;1.90;;;17.20;85.30;;;;;;5050015;28;20287;-89
2023/07/11 04:33:04;;;;;;;7.53;2.20;;;17.00;67.50;;;;;;5035360;28;20176;-89
2023/07/11 04:35:30;;;;;;;4.27;2.23;;;17.00;53.50;;;;;;5035454;28;20199;-89
2023/07/11 04:37:56;;;;;;;2.53;1.80;;;17.00;32.40;;;;;;5034357;28;20653;-89
2023/07/11 04:40:21;;;;;;;3.47;1.73;;;17.10;16.20;;;;;;5034657;28;20534;-89
2023/07/11 04:42:47;;;;;;;4.70;2.53;;;17.10;1.00;;;;;;5034202;28;20554;-89
2023/07/11 04:45:12;;;;;;;5.53;2.20;;;17.20;1.00;;;;;;5034356;28;20183;-89
2023/07/11 04:47:38;;;;;;;2.40;1.70;;;17.20;1.00;;;;;;5035292;28;20196;-89
2023/07/11 04:50:04;;;;;;;5.63;1.80;;;17.30;1.00;;;;;;5034071;28;20199;-89
2023/07/11 04:52:30;;;;;;;4.00;1.87;;;17.30;1.00;;;;;;5034877;28;20181;-89
2023/07/11 04:54:55;;;;;;;4.30;1.83;;;17.40;1.00;;;;;;5033938;28;20202;-89
2023/07/11 04:57:22;;;;;;;3.87;1.80;;;17.70;1.00;;;;;;5034724;28;20180;-89
2023/07/11 04:59:47;;;;;;;5.37;1.97;;;17.70;1.00;;;;;;5033842;28;20205;-90
2023/07/11 05:02:13;;;;;;;4.47;1.90;;;17.60;1.00;;;;;;5033767;28;20550;-90
2023/07/11 05:04:39;;;;;;;2.90;1.93;;;17.60;1.00;;;;;;5034212;28;20181;-90
2023/07/11 05:07:06;;;;;;;6.30;2.17;;;17.70;1.00;;;;;;5034036;28;20242;-89
2023/07/11 05:09:31;;;;;;;5.47;2.20;;;17.80;1.00;;;;;;5032420;28;20296;-89
2023/07/11 05:11:57;;;;;;;6.67;2.30;;;17.80;1.00;;;;;;5033091;28;20641;-89
2023/07/11 05:14:23;;;;;;;3.37;1.73;;;17.80;1.00;;;;;;5033168;28;20181;-89
2023/07/11 05:16:49;;;;;;;5.57;2.37;;;18.60;1.00;;;;;;5032999;28;20185;-89
2023/07/11 05:19:15;;;;;;;4.00;1.53;;;18.00;1.00;;;;;;5034584;28;20203;-89
2023/07/11 05:21:40;;;;;;;5.13;1.97;;;18.00;1.00;;;;;;5032795;28;20217;-89
2023/07/11 05:24:06;;;;;;;5.57;2.40;;;17.90;1.00;;;;;;5032895;28;20670;-89
2023/07/11 05:26:32;;;;;;;5.23;1.90;;;18.10;1.00;;;;;;5033054;28;20294;-90
2023/07/11 05:28:58;;;;;;;2.00;1.67;;;18.20;1.00;;;;;;5033010;28;20598;-89
2023/07/11 05:31:24;;;;;;;3.87;1.70;;;18.40;1.00;;;;;;5034370;28;20179;-89
2023/07/11 05:33:53;;;;;;;3.33;1.70;;;18.20;1.00;;;;;;5033582;28;20631;-89
2023/07/11 05:36:31;;;;;;;3.40;2.17;;;18.30;1.00;;;;;;5035753;28;20662;-89
2023/07/11 05:39:03;;;;;;;4.40;1.80;;;18.40;1.00;;;;;;5037437;28;20239;-89
2023/07/11 05:41:29;;;;;;;4.43;1.80;;;18.40;1.00;;;;;;5036577;28;20531;-89
2023/07/11 05:43:55;;;;;;;4.67;2.27;;;18.50;1.00;;;;;;5036726;28;20569;-89
2023/07/11 05:46:23;;;;;;;5.13;1.73;;;18.60;1.00;;;;;;5036146;28;20229;-89
2023/07/11 05:48:49;;;;;;;5.03;2.00;;;18.60;1.00;;;;;;5037075;28;20184;-90
2023/07/11 05:51:16;;;;;;;6.20;1.93;;;18.90;1.00;;;;;;5036477;28;20180;-90
2023/07/11 05:53:42;;;;;;;5.67;2.23;;;18.70;1.00;;;;;;5037585;28;20203;-89
2023/07/11 05:56:08;;;;;;;6.00;2.40;;;18.80;1.00;;;;;;5036510;28;20180;-89
2023/07/11 05:58:34;;;;;;;3.70;1.90;;;19.00;1.00;;;;;;5037609;28;20177;-89
2023/07/11 06:01:00;;;;;;;7.63;2.10;;;19.10;1.00;;;;;;5036048;28;20193;-89
2023/07/11 06:03:29;;;;;;;5.90;2.07;;;19.00;1.00;;;;;;5036204;28;20617;-89
2023/07/11 06:06:00;;;;;;;2.40;2.00;;;19.00;1.00;;;;;;5036099;28;20234;-90
2023/07/11 06:08:26;;;;;;;5.20;1.97;;;19.10;1.00;;;;;;5036052;28;20224;-90
2023/07/11 06:10:55;;;;;;;8.47;2.57;;;19.10;1.00;;;;;;5036279;28;20200;-89
2023/07/11 06:13:20;;;;;;;3.53;2.07;;;19.20;1.00;;;;;;5035753;28;20607;-89
2023/07/11 06:15:46;;;;;;;9.37;2.03;;;19.20;1.00;;;;;;5037438;28;20184;-89
2023/07/11 06:18:11;;;;;;;3.93;1.90;;;20.60;1.00;;;;;;5051599;28;20180;-89
2023/07/11 06:20:37;;;;;;;4.37;1.87;;;19.40;1.00;;;;;;5038432;28;20200;-90
2023/07/11 06:23:02;;;;;;;6.67;2.30;;;20.10;1.00;;;;;;5036464;28;20180;-90
2023/07/11 06:25:28;;;;;;;5.93;2.10;;;19.50;1.00;;;;;;5036266;28;20183;-89
2023/07/11 06:27:54;;;;;;;6.70;2.30;;;19.70;1.00;;;;;;5036205;28;20224;-89
2023/07/11 06:30:19;;;;;;;9.13;2.37;;;19.60;1.00;;;;;;5035816;28;20678;-90
2023/07/11 06:32:45;;;;;;;5.47;2.30;;;19.60;1.00;;;;;;5037571;28;20634;-89
2023/07/11 06:35:10;;;;;;;4.53;2.10;;;19.90;1.00;;;;;;5036357;28;20188;-89
2023/07/11 06:37:37;;;;;;;5.60;2.23;;;20.00;1.00;;;;;;5035815;28;20185;-90
2023/07/11 06:40:06;;;;;;;5.43;2.10;;;19.80;1.00;;;;;;5035773;28;20685;-89
2023/07/11 06:42:32;;;;;;;4.33;2.10;;;19.80;1.00;;;;;;5035759;28;20180;-90
2023/07/11 06:44:57;;;;;;;5.27;2.20;;;20.20;1.00;;;;;;5036116;28;20180;-90
2023/07/11 06:47:23;;;;;;;3.00;1.90;;;20.00;1.00;;;;;;5036907;28;20204;-90
2023/07/11 06:49:49;;;;;;;4.47;2.37;;;20.30;1.00;;;;;;5035615;28;20540;-89
2023/07/11 06:52:14;;;;;;;8.40;2.33;;;20.10;1.00;;;;;;5036861;28;20222;-89
2023/07/11 06:54:40;;;;;;;5.30;2.00;;;20.10;1.00;;;;;;5035012;28;20303;-89
2023/07/11 06:57:06;;;;;;;5.97;2.27;;;20.20;1.00;;;;;;5034954;28;20176;-89
2023/07/11 06:59:31;;;;;;;4.33;2.10;;;20.30;1.00;;;;;;5034236;28;20686;-89
2023/07/11 07:01:57;;;;;;;4.57;2.27;;;20.40;1.00;;;;;;5034591;28;20622;-90
2023/07/11 07:04:22;;;;;;;4.70;2.47;;;20.40;1.00;;;;;;5035669;28;20187;-89
2023/07/11 07:06:48;;;;;;;5.37;2.17;;;20.50;1.00;;;;;;5035131;28;20319;-89
2023/07/11 07:09:13;;;;;;;4.60;2.40;;;20.60;1.00;;;;;;5034327;28;20250;-90
2023/07/11 07:11:40;;;;;;;5.67;2.17;;;20.80;1.00;;;;;;5034781;28;20173;-89
2023/07/11 07:14:09;;;;;;;4.90;2.30;;;20.80;1.00;;;;;;5034485;28;20286;-90
2023/07/11 07:16:39;;;;;;;5.37;2.87;;;20.90;1.00;;;;;;5034960;28;20177;-89
2023/07/11 07:19:07;;;;;;;7.50;2.53;;;20.90;1.00;;;;;;5035045;28;20294;-89
2023/07/11 07:21:33;;;;;;;5.93;2.50;;;21.50;1.00;;;;;;5034559;28;20182;-89
2023/07/11 07:23:59;;;;;;;3.73;2.10;;;21.10;1.00;;;;;;5034435;28;20249;-90
2023/07/11 07:26:24;;;;;;;4.27;2.53;;;21.10;1.00;;;;;;5035689;28;20184;-89
2023/07/11 07:28:50;;;;;;;6.50;2.33;;;21.70;1.00;;;;;;5035031;28;20176;-89
2023/07/11 07:31:16;;;;;;;4.77;2.20;;;21.30;1.00;;;;;;5034496;28;20180;-90
2023/07/11 07:33:41;;;;;;;6.30;2.13;;;21.40;1.00;;;;;;5034885;28;20271;-89
2023/07/11 07:36:10;;;;;;;4.00;2.63;;;21.40;1.00;;;;;;5034025;28;20220;-90
2023/07/11 07:38:35;;;;;;;4.97;2.20;;;21.50;1.00;;;;;;5034394;28;20184;-90
2023/07/11 07:41:05;;;;;;;5.77;2.60;;;21.60;1.00;;;;;;5034530;28;20192;-90
2023/07/11 07:43:31;;;;;;;7.13;2.33;;;21.80;1.00;;;;;;5034116;28;20176;-90
2023/07/11 07:45:59;;;;;;;8.33;2.20;;;21.80;99.90;;;;;;5034029;28;20172;-90
2023/07/11 07:48:25;;;;;;;6.30;2.40;;;21.80;99.90;;;;;;5035123;28;20612;-90
2023/07/11 07:50:52;;;;;;;5.60;2.50;;;21.90;99.90;;;;;;5034982;28;20195;-90
2023/07/11 07:53:17;;;;;;;8.27;2.40;;;22.00;99.90;;;;;;5033778;28;20176;-90
2023/07/11 07:55:43;;;;;;;6.97;2.30;;;21.50;99.90;;;;;;5035221;28;20222;-90
2023/07/11 07:58:10;;;;;;;7.50;2.37;;;22.10;99.90;;;;;;5033551;28;20180;-89
2023/07/11 08:00:36;;;;;;;5.27;2.30;;;23.10;99.90;;;;;;5035175;28;20215;-89
2023/07/11 08:03:03;;;;;;;9.93;2.53;;;22.40;99.90;;;;;;5037902;28;20553;-90
2023/07/11 08:05:30;;;;;;;7.67;2.53;;;22.60;99.90;;;;;;5038655;28;20250;-90
2023/07/11 08:07:55;;;;;;;7.53;2.50;;;22.50;99.90;;;;;;5035169;28;20231;-90
2023/07/11 08:10:21;;;;;;;5.50;2.60;;;22.60;99.90;;;;;;5034577;28;20199;-90
2023/07/11 08:12:46;;;;;;;5.57;2.00;;;22.80;99.90;;;;;;5034638;28;20176;-89
2023/07/11 08:15:13;;;;;;;4.33;2.20;;;23.10;99.90;;;;;;5033723;28;20180;-90
2023/07/11 08:17:42;;;;;;;6.00;2.40;;;23.10;99.90;;;;;;5033351;28;20657;-90
2023/07/11 08:20:08;;;;;;;5.67;2.17;;;23.20;99.90;;;;;;5034781;28;20203;-90
2023/07/11 08:22:34;;;;;;;5.27;2.00;;;23.30;99.90;;;;;;5033673;28;20618;-89
2023/07/11 08:24:59;;;;;;;5.83;2.30;;;23.50;99.90;;;;;;5034652;28;20180;-90
2023/07/11 08:27:25;;;;;;;5.97;2.17;;;23.80;99.90;;;;;;5033442;28;20282;-90
2023/07/11 08:29:51;;;;;;;3.30;2.10;;;23.40;99.90;;;;;;5033590;28;20559;-90
2023/07/11 08:32:18;;;;;;;3.33;1.90;;;23.50;99.90;;;;;;5033398;28;20164;-90
2023/07/11 08:34:44;;;;;;;7.77;2.10;;;23.60;99.90;;;;;;5032873;28;20523;-90
2023/07/11 08:37:10;;;;;;;3.50;2.10;;;23.60;99.90;;;;;;5034711;28;20184;-90
2023/07/11 08:39:37;;;;;;;6.60;2.37;;;23.70;99.90;;;;;;5033474;28;20623;-90
2023/07/11 08:42:16;;;;;;;4.27;2.20;;;24.00;99.90;;;;;;5033711;28;20183;-90
2023/07/11 08:44:49;;;;;;;5.97;2.07;;;24.00;99.90;;;;;;5034397;28;20175;-90
2023/07/11 08:47:33;;;;;;;7.60;2.20;;;24.20;99.90;;;;;;5034830;28;20673;-90
2023/07/11 08:50:26;;;;;;;8.77;2.47;;;24.70;1.00;;;;;;5033529;28;20333;-89
2023/07/11 08:53:08;;;;;;;12.30;2.70;;;24.80;1.00;;;;;;5032926;28;20164;-90
2023/07/11 08:55:37;;;;;;;4.80;1.90;;;25.00;17.00;;;;;;5031899;28;20548;-90
2023/07/11 08:58:28;;;;;;;5.80;2.50;;;25.10;1.10;;;;;;5033312;28;20181;-90
2023/07/11 09:00:53;;;;;;;5.37;2.10;;;25.10;1.00;;;;;;5035476;28;20203;-90
2023/07/11 09:03:27;;;;;;;2.95;2.20;;;25.30;1.00;;;;;;5031522;28;20177;-90
2023/07/11 09:06:00;;;;;;;5.18;1.95;;;25.50;1.00;;;;;;5032676;28;20544;-89
2023/07/11 09:08:25;;;;;;;4.53;2.22;;;25.40;1.00;;;;;;5031659;28;20211;-89
2023/07/11 09:11:20;;;;;;;5.55;1.90;;;25.50;1.00;;;;;;5035364;28;20627;-90
2023/07/11 09:14:26;;;;;;;8.02;1.90;;;25.70;1.00;;;;;;5035872;28;20172;-90
2023/07/11 09:17:10;;;;;;;6.25;2.42;;;25.70;1.00;;;;;;5014075;28;20295;-90
2023/07/11 09:19:50;;;;;;;7.88;2.50;;;25.90;99.90;;;;;;5035469;28;20200;-90
2023/07/11 09:22:41;;;;;;;6.50;1.90;;;26.30;1.00;;;;;;5035533;28;20180;-90
2023/07/11 09:25:15;;;;;;;8.57;2.08;;;26.20;99.90;;;;;;5035138;28;20264;-90
2023/07/11 09:28:13;;;;;;;6.10;1.88;;;26.30;99.90;;;;;;5035192;28;20229;-90
2023/07/11 09:30:57;;;;;;;11.25;2.20;;;26.30;99.90;;;;;;5034220;28;20204;-89
2023/07/11 09:33:39;;;;;;;6.13;2.15;;;26.20;99.90;;;;;;5034798;28;20259;-90
2023/07/11 09:36:23;;;;;;;4.28;2.15;;;26.30;1.00;;;;;;5036167;28;20222;-90
2023/07/11 09:38:56;;;;;;;8.85;2.13;;;26.30;1.00;;;;;;5034616;28;20176;-90
2023/07/11 09:41:28;;;;;;;8.90;2.55;;;26.50;25.50;;;;;;5035794;28;20570;-90
2023/07/11 09:43:54;;;;;;;7.45;2.38;;;26.60;99.90;;;;;;5034910;28;20646;-90
2023/07/11 09:46:25;;;;;;;6.97;2.08;;;26.60;99.90;;;;;;5034973;28;20169;-90
2023/07/11 09:48:54;;;;;;;7.15;2.08;;;26.60;99.90;;;;;;5034736;28;20172;-90
2023/07/11 09:51:27;;;;;;;3.78;2.10;;;26.70;99.90;;;;;;5036665;28;20184;-90
2023/07/11 09:53:55;;;;;;;6.97;2.15;;;26.90;1.00;;;;;;5036312;28;20176;-90
2023/07/11 09:56:23;;;;;;;5.88;1.85;;;27.10;1.00;;;;;;5034888;28;20168;-90
2023/07/11 09:58:51;;;;;;;5.07;1.60;;;26.90;99.90;;;;;;5034794;28;20172;-90
2023/07/11 10:01:27;;;;;;;7.07;2.15;;;27.10;1.00;;;;;;5034914;28;20657;-90
2023/07/11 10:03:56;;;;;;;7.05;2.00;;;27.00;99.90;;;;;;5036093;28;20175;-90
2023/07/11 10:06:37;;;;;;;4.63;2.10;;;27.00;99.90;;;;;;5034295;28;20177;-90
2023/07/11 10:09:14;;;;;;;4.90;1.70;;;27.00;1.00;;;;;;5034379;28;20226;-90
2023/07/11 10:11:40;;;;;;;5.65;2.50;;;26.90;99.90;;;;;;5034361;28;20240;-91
2023/07/11 10:14:14;;;;;;;4.75;2.10;;;26.90;13.30;;;;;;5034136;28;20646;-90
2023/07/11 10:16:40;;;;;;;5.97;1.70;;;26.90;1.00;;;;;;5034350;28;20176;-90
2023/07/11 10:19:14;;;;;;;5.22;2.40;;;27.00;99.90;;;;;;5034713;28;20227;-90
2023/07/11 10:21:47;;;;;;;4.82;2.08;;;27.10;1.00;;;;;;5033913;28;20642;-90
2023/07/11 10:24:32;;;;;;;4.18;1.77;;;27.20;99.90;;;;;;5034245;28;20176;-90
2023/07/11 10:27:03;;;;;;;3.88;2.03;;;27.20;47.40;;;;;;5034154;28;20700;-90
2023/07/11 10:29:35;;;;;;;6.45;1.92;;;27.30;99.90;;;;;;5034822;28;20196;-90
2023/07/11 10:32:10;;;;;;;7.90;1.83;;;27.20;99.90;;;;;;5034121;28;20251;-90
2023/07/11 10:34:47;;;;;;;5.35;1.90;;;27.40;1.00;;;;;;5033901;28;20174;-90
2023/07/11 10:37:26;;;;;;;7.15;2.00;;;27.50;1.00;;;;;;5033818;28;20176;-90
2023/07/11 10:39:57;;;;;;;6.38;1.92;;;27.60;99.90;;;;;;5035054;28;20207;-90
2023/07/11 10:43:11;;;;;;;10.95;2.00;;;27.70;99.90;;;;;;5034994;28;20161;-90
2023/07/11 10:45:48;;;;;;;3.15;1.58;;;27.70;1.00;;;;;;5017778;28;20188;-90
2023/07/11 10:48:38;;;;;;;6.97;1.70;;;27.80;1.00;;;;;;5033565;28;20242;-90
2023/07/11 10:51:21;;;;;;;4.32;1.95;;;27.90;1.00;;;;;;5034550;28;20561;-90
2023/07/11 10:54:16;;;;;;;5.05;1.90;;;28.10;90.00;;;;;;5033793;28;20516;-91
2023/07/11 10:56:46;;;;;;;5.28;1.90;;;28.00;1.00;;;;;;5033484;28;20178;-91
2023/07/11 10:59:15;;;;;;;4.80;2.00;;;28.10;1.00;;;;;;5033662;28;20227;-90
2023/07/11 11:01:57;;;;;;;5.63;1.85;;;28.20;1.00;;;;;;5033239;28;20182;-90
2023/07/11 11:05:03;;;;;;;3.78;1.80;;;28.30;1.00;;;;;;5033810;28;20263;-90
2023/07/11 11:07:36;;;;;;;3.97;1.80;;;28.30;8.50;;;;;;5033577;28;20712;-90
2023/07/11 11:10:29;;;;;;;5.57;1.90;;;28.40;1.00;;;;;;5033184;28;20262;-90
2023/07/11 11:13:22;;;;;;;3.28;2.00;;;28.50;1.00;;;;;;5033525;28;20172;-90
2023/07/11 11:16:00;;;;;;;6.80;2.00;;;28.60;1.00;;;;;;5034199;28;20165;-90
2023/07/11 11:18:45;;;;;;;8.93;1.80;;;28.60;99.90;;;;;;5045589;28;20259;-90
2023/07/11 11:21:30;;;;;;;3.47;2.00;;;28.70;1.00;;;;;;5039775;28;20172;-90
2023/07/11 11:24:09;;;;;;;4.18;2.10;;;28.80;1.00;;;;;;5038046;28;20550;-90
2023/07/11 11:26:56;;;;;;;5.47;2.55;;;28.70;1.00;;;;;;5036076;28;20160;-90
2023/07/11 11:29:38;;;;;;;12.68;2.17;;;28.80;1.00;;;;;;5033175;28;20196;-90
2023/07/11 11:32:23;;;;;;;5.07;2.13;;;28.80;99.90;;;;;;5032138;28;20176;-90
2023/07/11 11:35:13;;;;;;;5.03;1.90;;;28.70;99.90;;;;;;5032630;28;20168;-90
2023/07/11 11:37:57;;;;;;;9.02;2.25;;;28.90;99.90;;;;;;5033898;28;20197;-90
2023/07/11 11:40:26;;;;;;;5.35;1.90;;;29.00;1.00;;;;;;5034356;28;20290;-90
2023/07/11 11:42:59;;;;;;;26.02;2.20;;;29.10;1.00;;;;;;5034026;28;20188;-90
2023/07/11 11:45:26;;;;;;;5.90;1.88;;;29.00;99.90;;;;;;5032749;28;20172;-90
2023/07/11 11:47:53;;;;;;;2.95;1.60;;;29.00;99.90;;;;;;5032552;28;20212;-91
2023/07/11 11:50:22;;;;;;;6.28;1.88;;;29.20;99.90;;;;;;5032817;28;20562;-90
2023/07/11 11:52:56;;;;;;;9.13;1.95;;;29.30;99.90;;;;;;5032390;28;20322;-91
2023/07/11 11:55:33;;;;;;;5.68;2.22;;;29.40;1.00;;;;;;5033833;28;20642;-90
2023/07/11 11:57:59;;;;;;;11.52;2.00;;;29.50;1.00;;;;;;5032419;28;20183;-90
2023/07/11 12:00:44;;;;;;;5.47;1.42;;;29.50;1.00;;;;;;5032357;28;20192;-90
2023/07/11 12:03:36;;;;;;;3.50;1.70;;;29.80;99.90;;;;;;5032663;28;20229;-90
2023/07/11 12:06:31;;;;;;;5.35;1.80;;;29.70;1.00;;;;;;5030893;28;20276;-91
2023/07/11 12:09:15;;;;;;;3.63;1.55;;;29.70;99.90;;;;;;5033900;28;20635;-90
2023/07/11 12:12:04;;;;;;;9.43;2.28;;;29.80;1.00;;;;;;5033545;28;20169;-91
2023/07/11 12:14:43;;;;;;;6.00;1.90;;;29.90;1.00;;;;;;5032653;28;20206;-91
2023/07/11 12:17:33;;;;;;;6.35;1.70;;;29.80;1.00;;;;;;5033894;28;20188;-91
2023/07/11 12:20:02;;;;;;;6.53;2.05;;;29.80;1.00;;;;;;5033730;28;20199;-90
2023/07/11 12:22:36;;;;;;;7.20;2.05;;;29.90;1.00;;;;;;5032449;28;20262;-91
2023/07/11 12:25:17;;;;;;;4.85;1.85;;;29.80;1.00;;;;;;5032212;28;20175;-90
2023/07/11 12:27:56;;;;;;;4.15;1.63;;;30.00;1.00;;;;;;5032266;28;20200;-90
2023/07/11 12:30:34;;;;;;;3.92;1.77;;;30.00;1.00;;;;;;5032214;28;20195;-91
2023/07/11 12:33:37;;;;;;;3.95;1.70;;;30.00;1.00;;;;;;5032203;28;20251;-91
2023/07/11 12:36:06;;;;;;;4.80;2.20;;;30.20;1.00;;;;;;5031985;28;20263;-90
2023/07/11 12:38:43;;;;;;;7.10;1.63;;;30.10;1.00;;;;;;5032384;28;20176;-90
2023/07/11 12:41:33;;;;;;;5.13;1.73;;;30.20;57.00;;;;;;5032396;28;20195;-91
2023/07/11 12:44:00;;;;;;;3.67;1.80;;;30.20;1.00;;;;;;5034945;28;20594;-91
2023/07/11 12:46:34;;;;;;;6.63;1.80;;;30.40;1.00;;;;;;5036475;28;20176;-90
2023/07/11 12:49:03;;;;;;;3.63;1.50;;;30.40;1.00;;;;;;5036220;28;20179;-91
2023/07/11 12:51:37;;;;;;;4.82;1.63;;;30.50;99.90;;;;;;5036569;28;20169;-91
2023/07/11 12:54:09;;;;;;;7.05;1.80;;;30.50;56.50;;;;;;5036432;28;20203;-90
2023/07/11 12:56:35;;;;;;;8.35;2.00;;;30.50;1.00;;;;;;5036402;28;20176;-90
2023/07/11 12:59:00;;;;;;;6.10;1.85;;;30.60;1.00;;;;;;5036971;28;20200;-91
2023/07/11 13:01:29;;;;;;;3.65;2.15;;;30.70;1.00;;;;;;5038819;28;20165;-91
2023/07/11 13:03:58;;;;;;;6.25;2.25;;;30.60;99.90;;;;;;5038641;28;20672;-90
2023/07/11 13:06:29;;;;;;;4.10;1.92;;;30.80;99.90;;;;;;5051664;28;20173;-91